Time;durP1;ratioP1;P1;durP2;ratioP2;P2;SDS_P1;SDS_P2;PMS_P1;PMS_P2;Temp;Humidity;BMP_temperature;BMP_pressure;BME280_temperature;BME280_humidity;BME280_pressure;Samples;Min_cycle;Max_cycle;Signal;HPM_P1;HPM_P2
2022/04/14 00:02:23;;;;;;;55.23;34.20;;;;;;;12.08;100.00;100134.75;1777727;81;21002;-63
2022/04/14 00:04:50;;;;;;;54.03;33.85;;;;;;;12.08;100.00;100123.95;1777745;80;21497;-63
2022/04/14 00:07:17;;;;;;;62.38;34.40;;;;;;;12.34;100.00;100125.06;1777522;80;21022;-63
2022/04/14 00:09:46;;;;;;;60.78;34.00;;;;;;;12.09;100.00;100138.53;1777674;80;21021;-63
2022/04/14 00:12:14;;;;;;;51.10;32.45;;;;;;;12.22;100.00;100135.62;1777640;79;21601;-63
2022/04/14 00:14:42;;;;;;;52.67;32.58;;;;;;;12.19;100.00;100145.30;1777955;79;21033;-63
2022/04/14 00:17:12;;;;;;;54.67;33.67;;;;;;;12.39;100.00;100141.59;1777698;80;21029;-63
2022/04/14 00:19:40;;;;;;;54.73;33.18;;;;;;;12.30;100.00;100146.80;1777947;81;21502;-63
2022/04/14 00:22:08;;;;;;;53.73;32.67;;;;;;;12.29;100.00;100132.72;1778004;79;21093;-63
2022/04/14 00:24:35;;;;;;;53.98;33.67;;;;;;;12.33;100.00;100142.77;1777762;79;21065;-64
2022/04/14 00:27:04;;;;;;;49.85;31.70;;;;;;;12.21;100.00;100148.16;1777568;79;21557;-63
2022/04/14 00:29:32;;;;;;;51.02;33.53;;;;;;;12.13;100.00;100143.07;1777643;81;21643;-63
2022/04/14 00:32:02;;;;;;;49.70;31.87;;;;;;;12.16;100.00;100154.49;1777615;80;21037;-63
2022/04/14 00:34:29;;;;;;;46.88;30.88;;;;;;;12.14;100.00;100150.70;1777949;80;21044;-63
2022/04/14 00:36:56;;;;;;;47.67;30.43;;;;;;;12.17;100.00;100145.85;1777748;79;21120;-63
2022/04/14 00:39:23;;;;;;;47.25;30.45;;;;;;;12.05;100.00;100148.66;1777951;79;21049;-63
2022/04/14 00:41:50;;;;;;;47.60;30.45;;;;;;;12.00;100.00;100150.21;1777974;80;21005;-64
2022/04/14 00:44:18;;;;;;;46.08;31.25;;;;;;;11.99;100.00;100158.03;1777715;79;21514;-63
2022/04/14 00:46:45;;;;;;;45.83;30.23;;;;;;;12.01;100.00;100156.20;1777862;80;21581;-63
2022/04/14 00:49:13;;;;;;;50.17;31.62;;;;;;;11.97;100.00;100168.89;1777655;81;21037;-63
2022/04/14 00:51:40;;;;;;;46.77;30.68;;;;;;;12.05;100.00;100169.77;1778073;79;21101;-64
2022/04/14 00:54:07;;;;;;;51.20;30.37;;;;;;;11.93;100.00;100168.22;1777984;79;21076;-63
2022/04/14 00:56:35;;;;;;;46.95;30.30;;;;;;;12.02;100.00;100156.55;1777759;81;21084;-63
2022/04/14 00:59:03;;;;;;;48.90;29.80;;;;;;;12.13;100.00;100169.70;1777763;79;21124;-63
2022/04/14 01:01:31;;;;;;;44.55;30.10;;;;;;;12.19;100.00;100163.38;1777715;81;21056;-63
2022/04/14 01:04:01;;;;;;;43.85;29.75;;;;;;;12.01;100.00;100171.67;1777964;80;20974;-63
2022/04/14 01:06:29;;;;;;;45.33;29.50;;;;;;;12.01;100.00;100174.25;1777941;81;21041;-63
2022/04/14 01:11:49;;;;;;;44.40;29.85;;;;;;;11.94;100.00;100180.22;1777974;79;21135;-63
2022/04/14 01:14:33;;;;;;;51.05;30.97;;;;;;;11.97;100.00;100192.11;1777896;79;21020;-63
2022/04/14 01:17:07;;;;;;;44.10;29.85;;;;;;;11.92;100.00;100182.05;1778308;79;21030;-64
2022/04/14 01:19:38;;;;;;;44.63;29.25;;;;;;;12.13;100.00;100190.34;1758608;80;21037;-64
2022/04/14 01:22:35;;;;;;;45.80;29.15;;;;;;;12.00;100.00;100190.63;1777913;79;21005;-64
2022/04/14 01:25:03;;;;;;;41.83;29.00;;;;;;;12.06;100.00;100189.47;1781819;80;21017;-64
2022/04/14 01:27:33;;;;;;;43.80;28.87;;;;;;;12.04;100.00;100189.55;1773186;79;21061;-64
2022/04/14 01:30:01;;;;;;;45.00;29.65;;;;;;;11.93;100.00;100191.91;1759084;81;21094;-64
2022/04/14 01:32:29;;;;;;;45.23;29.25;;;;;;;11.96;100.00;100194.30;1738506;82;21039;-64
2022/04/14 01:34:57;;;;;;;45.50;28.70;;;;;;;12.11;100.00;100197.80;1738265;82;21515;-64
2022/04/14 01:37:24;;;;;;;45.80;28.98;;;;;;;12.03;100.00;100190.48;1738235;82;21491;-64
2022/04/14 01:39:52;;;;;;;48.78;30.02;;;;;;;11.99;100.00;100199.30;1738526;82;21038;-63
2022/04/14 01:42:19;;;;;;;44.50;28.15;;;;;;;12.16;100.00;100196.60;1738552;82;21078;-64
2022/04/14 01:44:48;;;;;;;39.50;27.27;;;;;;;12.13;100.00;100207.11;1738186;82;21034;-64
2022/04/14 01:47:16;;;;;;;44.63;28.95;;;;;;;12.22;100.00;100205.76;1738524;82;21054;-64
2022/04/14 01:49:44;;;;;;;42.20;28.57;;;;;;;12.16;100.00;100214.67;1738265;82;21039;-63
2022/04/14 01:52:12;;;;;;;42.35;28.30;;;;;;;11.98;100.00;100215.25;1738512;82;21039;-63
2022/04/14 01:54:39;;;;;;;42.35;28.35;;;;;;;12.17;100.00;100220.22;1738217;82;21042;-64
2022/04/14 01:57:07;;;;;;;41.53;27.73;;;;;;;12.14;100.00;100229.41;1738270;82;21031;-64
2022/04/14 01:59:34;;;;;;;40.73;27.58;;;;;;;12.03;100.00;100235.16;1738274;82;21113;-64
2022/04/14 02:02:01;;;;;;;45.08;27.45;;;;;;;12.01;100.00;100235.70;1738234;82;21094;-63
2022/04/14 02:04:29;;;;;;;41.05;28.32;;;;;;;12.01;100.00;100234.88;1738260;82;21078;-64
2022/04/14 02:06:56;;;;;;;40.75;28.00;;;;;;;12.13;100.00;100238.08;1738457;82;21011;-64
2022/04/14 02:09:26;;;;;;;43.13;28.05;;;;;;;11.95;100.00;100242.95;1738429;82;21063;-64
2022/04/14 02:11:54;;;;;;;44.05;28.00;;;;;;;12.18;100.00;100233.47;1738268;82;21015;-63
2022/04/14 02:14:21;;;;;;;46.20;28.47;;;;;;;11.95;100.00;100241.66;1738461;82;21042;-64
2022/04/14 02:16:49;;;;;;;44.20;27.98;;;;;;;11.95;100.00;100249.40;1738190;82;21594;-64
2022/04/14 02:19:17;;;;;;;45.70;29.37;;;;;;;11.93;100.00;100252.52;1738268;82;21035;-64
2022/04/14 02:21:44;;;;;;;40.80;27.27;;;;;;;12.13;100.00;100259.19;1738255;82;21093;-64
2022/04/14 02:24:11;;;;;;;43.50;27.27;;;;;;;11.93;100.00;100255.09;1738237;82;21039;-64
2022/04/14 02:26:38;;;;;;;43.58;28.15;;;;;;;11.97;100.00;100253.55;1738351;82;21117;-64
2022/04/14 02:29:06;;;;;;;43.42;27.73;;;;;;;12.08;100.00;100261.98;1738027;82;21050;-63
2022/04/14 02:31:33;;;;;;;42.43;27.73;;;;;;;12.02;100.00;100257.16;1738232;82;21023;-63
2022/04/14 02:34:00;;;;;;;43.85;27.90;;;;;;;11.94;100.00;100256.75;1738319;82;21476;-64
2022/04/14 02:36:27;;;;;;;43.15;27.82;;;;;;;11.87;100.00;100250.23;1738229;82;21011;-64
2022/04/14 02:38:54;;;;;;;40.40;27.10;;;;;;;11.92;100.00;100263.30;1738493;82;21095;-63
2022/04/14 02:41:22;;;;;;;41.05;27.55;;;;;;;12.02;100.00;100268.34;1738208;82;21052;-64
2022/04/14 02:43:49;;;;;;;42.98;28.02;;;;;;;11.95;100.00;100270.03;1738461;82;21086;-64
2022/04/14 02:46:17;;;;;;;43.28;27.27;;;;;;;11.97;100.00;100284.97;1738330;82;21067;-64
2022/04/14 02:48:44;;;;;;;47.38;28.35;;;;;;;12.08;100.00;100273.60;1738175;82;21081;-64
2022/04/14 02:51:11;;;;;;;42.50;27.62;;;;;;;12.01;100.00;100280.84;1738404;82;21484;-63
2022/04/14 02:53:41;;;;;;;40.95;26.05;;;;;;;11.96;100.00;100285.44;1738135;82;21027;-64
2022/04/14 02:56:10;;;;;;;43.50;26.68;;;;;;;12.01;100.00;100296.33;1738208;82;21562;-64
2022/04/14 02:58:37;;;;;;;41.42;26.33;;;;;;;11.90;100.00;100287.48;1738048;82;21126;-64
2022/04/14 03:01:04;;;;;;;39.92;26.95;;;;;;;11.99;100.00;100305.07;1738215;82;21050;-63
2022/04/14 03:03:33;;;;;;;39.85;25.82;;;;;;;12.00;100.00;100310.16;1738385;82;21071;-63
2022/04/14 03:06:01;;;;;;;41.30;26.30;;;;;;;11.88;100.00;100303.03;1738184;82;21042;-63
2022/04/14 03:08:30;;;;;;;41.85;27.00;;;;;;;11.98;100.00;100311.13;1738155;82;21523;-63
2022/04/14 03:10:58;;;;;;;40.48;25.20;;;;;;;12.06;100.00;100308.97;1738459;82;21475;-63
2022/04/14 03:13:27;;;;;;;38.15;25.17;;;;;;;11.91;100.00;100321.41;1738188;82;21070;-63
2022/04/14 03:15:54;;;;;;;42.43;26.62;;;;;;;11.84;100.00;100319.59;1738472;82;21043;-64
2022/04/14 03:18:23;;;;;;;40.35;25.72;;;;;;;11.90;100.00;100323.59;1738161;82;21551;-64
2022/04/14 03:20:50;;;;;;;41.95;26.37;;;;;;;12.08;100.00;100330.36;1738218;82;21039;-64
2022/04/14 03:23:20;;;;;;;38.95;26.45;;;;;;;12.16;100.00;100341.11;1738055;82;21039;-64
2022/04/14 03:25:49;;;;;;;37.23;25.70;;;;;;;11.99;100.00;100334.73;1738210;82;21055;-64
2022/04/14 03:28:17;;;;;;;39.30;24.87;;;;;;;12.07;100.00;100339.50;1738097;82;21078;-64
2022/04/14 03:30:45;;;;;;;39.63;25.52;;;;;;;11.85;100.00;100339.75;1738214;82;21015;-64
2022/04/14 03:33:12;;;;;;;40.43;25.62;;;;;;;11.99;100.00;100342.02;1738032;82;21007;-64
2022/04/14 03:35:39;;;;;;;39.18;24.55;;;;;;;11.83;100.00;100343.23;1738524;82;21476;-64
2022/04/14 03:38:06;;;;;;;41.75;24.70;;;;;;;11.82;100.00;100348.49;1738325;82;21527;-64
2022/04/14 03:40:34;;;;;;;38.13;25.20;;;;;;;11.90;100.00;100353.26;1738250;82;21047;-64
2022/04/14 03:43:01;;;;;;;45.48;27.42;;;;;;;12.03;100.00;100353.83;1738436;82;21082;-64
2022/04/14 03:45:28;;;;;;;41.80;26.07;;;;;;;11.83;100.00;100361.75;1738115;82;21050;-64
2022/04/14 03:47:56;;;;;;;40.58;26.73;;;;;;;11.72;100.00;100362.31;1738145;82;21057;-64
2022/04/14 03:50:23;;;;;;;41.45;25.82;;;;;;;11.74;100.00;100368.22;1738199;82;21031;-64
2022/04/14 03:52:50;;;;;;;41.33;25.97;;;;;;;11.80;100.00;100374.36;1738397;82;21511;-64
2022/04/14 03:55:19;;;;;;;38.05;25.08;;;;;;;11.70;100.00;100377.03;1738217;82;21015;-64
2022/04/14 03:57:46;;;;;;;39.30;24.87;;;;;;;11.62;100.00;100378.70;1738354;82;21038;-64
2022/04/14 04:00:15;;;;;;;41.55;26.33;;;;;;;11.75;100.00;100367.77;1738182;82;21086;-64
2022/04/14 04:02:42;;;;;;;42.03;26.27;;;;;;;11.76;100.00;100387.47;1738596;82;21567;-64
2022/04/14 04:05:11;;;;;;;38.83;24.67;;;;;;;11.80;100.00;100383.81;1738443;82;21547;-64
2022/04/14 04:07:39;;;;;;;37.38;24.35;;;;;;;11.63;100.00;100401.44;1738258;82;20999;-64
2022/04/14 04:10:09;;;;;;;38.10;24.82;;;;;;;11.68;100.00;100406.36;1738308;82;21480;-64
2022/04/14 04:12:37;;;;;;;46.00;28.20;;;;;;;11.62;100.00;100404.48;1738477;82;21050;-64
2022/04/14 04:15:07;;;;;;;40.92;26.20;;;;;;;11.68;100.00;100411.52;1738228;82;21035;-65
2022/04/14 04:17:35;;;;;;;37.48;24.30;;;;;;;11.72;100.00;100407.44;1738138;82;21515;-64
2022/04/14 04:20:06;;;;;;;41.77;24.43;;;;;;;11.58;100.00;100404.72;1738070;82;21019;-64
2022/04/14 04:22:33;;;;;;;39.10;24.23;;;;;;;11.67;100.00;100413.27;1738569;82;20977;-64
2022/04/14 04:25:00;;;;;;;36.93;24.07;;;;;;;11.54;100.00;100412.23;1738498;82;21007;-64
2022/04/14 04:27:28;;;;;;;41.10;24.70;;;;;;;11.44;100.00;100419.58;1738151;82;21058;-64
2022/04/14 04:29:56;;;;;;;37.73;23.25;;;;;;;11.62;100.00;100413.97;1751316;81;21097;-64
2022/04/14 04:32:23;;;;;;;38.33;23.95;;;;;;;11.69;100.00;100419.18;1756335;82;21030;-65
2022/04/14 04:34:50;;;;;;;41.70;24.15;;;;;;;11.64;100.00;100410.86;1758516;82;21002;-64
2022/04/14 04:37:19;;;;;;;38.48;23.62;;;;;;;11.72;100.00;100418.19;1758287;82;21104;-65
2022/04/14 04:39:47;;;;;;;38.30;24.87;;;;;;;11.53;100.00;100413.95;1758338;82;21026;-64
2022/04/14 04:42:14;;;;;;;38.70;24.92;;;;;;;11.55;100.00;100415.17;1758547;82;21073;-64
2022/04/14 04:44:46;;;;;;;44.08;25.77;;;;;;;11.51;100.00;100438.14;1758294;81;20994;-64
2022/04/14 04:47:13;;;;;;;43.23;26.33;;;;;;;11.61;100.00;100425.17;1758162;81;21011;-64
2022/04/14 04:49:43;;;;;;;48.13;27.95;;;;;;;11.62;100.00;100428.15;1763955;80;21073;-64
2022/04/14 04:52:10;;;;;;;49.88;28.92;;;;;;;11.59;100.00;100448.45;1763942;81;21084;-65
2022/04/14 04:54:37;;;;;;;46.80;25.97;;;;;;;11.78;100.00;100439.80;1764195;81;21045;-64
2022/04/14 04:57:05;;;;;;;49.60;30.48;;;;;;;11.64;100.00;100449.53;1763949;81;21077;-64
2022/04/14 04:59:33;;;;;;;51.33;29.50;;;;;;;11.61;100.00;100449.67;1764066;81;21096;-64
2022/04/14 05:02:00;;;;;;;48.48;29.95;;;;;;;11.65;100.00;100453.77;1762609;81;21102;-64
2022/04/14 05:04:28;;;;;;;46.05;29.00;;;;;;;11.51;100.00;100458.30;1758476;82;21078;-64
2022/04/14 05:06:56;;;;;;;47.53;28.25;;;;;;;11.69;100.00;100442.39;1758689;82;21111;-64
2022/04/14 05:09:24;;;;;;;45.88;26.80;;;;;;;11.76;100.00;100448.92;1758427;81;21037;-64
2022/04/14 05:11:54;;;;;;;41.25;26.23;;;;;;;11.69;100.00;100448.84;1758348;81;21058;-64
2022/04/14 05:14:21;;;;;;;37.55;24.32;;;;;;;11.68;100.00;100461.36;1758528;82;21136;-64
2022/04/14 05:16:49;;;;;;;40.20;23.52;;;;;;;11.48;100.00;100452.02;1757557;81;21062;-65
2022/04/14 05:19:16;;;;;;;41.55;25.52;;;;;;;11.43;100.00;100472.02;1758605;81;21034;-65
2022/04/14 05:21:46;;;;;;;48.92;26.60;;;;;;;11.62;100.00;100456.05;1758419;81;21030;-64
2022/04/14 05:24:13;;;;;;;54.00;29.48;;;;;;;11.40;100.00;100461.88;1758606;81;21471;-64
2022/04/14 05:26:41;;;;;;;48.80;27.00;;;;;;;11.53;100.00;100465.50;1758573;81;21054;-64
2022/04/14 05:29:09;;;;;;;40.80;25.23;;;;;;;11.49;100.00;100465.73;1758324;81;21027;-65
2022/04/14 05:31:38;;;;;;;39.38;24.87;;;;;;;11.39;100.00;100473.08;1758309;81;21095;-64
2022/04/14 05:34:05;;;;;;;38.63;23.92;;;;;;;11.50;100.00;100476.45;1758414;81;21053;-65
2022/04/14 05:36:33;;;;;;;41.68;24.85;;;;;;;11.57;100.00;100470.06;1758379;82;21029;-64
2022/04/14 05:39:00;;;;;;;42.50;25.90;;;;;;;11.57;100.00;100476.05;1758726;81;21523;-63
2022/04/14 05:41:29;;;;;;;44.50;26.00;;;;;;;11.71;100.00;100475.84;1758587;81;21502;-63
2022/04/14 05:43:57;;;;;;;45.85;25.52;;;;;;;11.71;100.00;100470.69;1758689;81;21478;-63
2022/04/14 05:46:25;;;;;;;48.02;27.05;;;;;;;11.82;100.00;100476.98;1758472;82;21573;-63
2022/04/14 05:48:54;;;;;;;44.15;26.15;;;;;;;11.79;100.00;100476.30;1758217;81;21062;-62
2022/04/14 05:51:22;;;;;;;42.27;26.00;;;;;;;11.75;100.00;100469.16;1758599;82;21077;-64
2022/04/14 05:53:51;;;;;;;41.42;24.72;;;;;;;11.96;100.00;100474.19;1758376;81;21046;-64
2022/04/14 05:56:20;;;;;;;40.17;25.00;;;;;;;11.78;100.00;100479.77;1758520;82;21022;-64
2022/04/14 05:58:49;;;;;;;40.20;24.85;;;;;;;11.73;100.00;100480.00;1758581;82;21043;-64
2022/04/14 06:01:16;;;;;;;37.90;22.95;;;;;;;12.06;100.00;100479.72;1758396;81;21078;-64
2022/04/14 06:03:43;;;;;;;33.73;22.02;;;;;;;12.14;100.00;100482.28;1758363;81;21034;-63
2022/04/14 06:06:13;;;;;;;32.05;21.05;;;;;;;12.01;100.00;100480.78;1758485;81;21533;-63
2022/04/14 06:08:41;;;;;;;33.63;21.80;;;;;;;12.25;100.00;100492.08;1758663;81;21073;-63
2022/04/14 06:11:11;;;;;;;30.45;19.37;;;;;;;11.92;100.00;100496.75;1758168;81;21077;-63
2022/04/14 06:13:39;;;;;;;32.25;21.02;;;;;;;12.11;100.00;100500.98;1758264;81;21042;-63
2022/04/14 06:16:07;;;;;;;34.85;20.80;;;;;;;12.14;100.00;100495.19;1758447;81;21065;-63
2022/04/14 06:18:34;;;;;;;35.75;22.10;;;;;;;11.89;100.00;100505.08;1758376;81;21112;-63
2022/04/14 06:21:01;;;;;;;33.02;21.12;;;;;;;11.86;100.00;100510.34;1758514;81;21050;-62
2022/04/14 06:23:30;;;;;;;33.00;21.62;;;;;;;11.79;100.00;100514.98;1758137;81;21053;-63
2022/04/14 06:25:57;;;;;;;32.40;21.90;;;;;;;11.83;100.00;100498.44;1758181;81;21091;-62
2022/04/14 06:28:26;;;;;;;32.15;21.33;;;;;;;12.09;100.00;100504.09;1757635;81;21522;-63
2022/04/14 06:30:56;;;;;;;34.92;20.75;;;;;;;11.84;100.00;100515.61;1748266;82;20991;-63
2022/04/14 06:33:25;;;;;;;32.40;21.12;;;;;;;12.00;100.00;100510.53;1748581;82;21089;-63
2022/04/14 06:35:53;;;;;;;33.88;20.72;;;;;;;12.06;100.00;100497.31;1739374;82;21027;-63
2022/04/14 06:38:24;;;;;;;28.17;20.45;;;;;;;12.01;100.00;100523.36;1738197;82;21086;-63
2022/04/14 06:40:50;;;;;;;32.78;19.80;;;;;;;12.05;100.00;100515.48;1738083;82;21046;-63
2022/04/14 06:43:23;;;;;;;31.93;20.00;;;;;;;12.27;100.00;100506.20;1738101;82;21027;-62
2022/04/14 06:45:52;;;;;;;27.75;18.30;;;;;;;12.32;100.00;100526.97;1738399;82;21027;-63
2022/04/14 06:48:19;;;;;;;27.17;18.00;;;;;;;11.95;100.00;100519.79;1730027;82;20992;-63
2022/04/14 06:50:46;;;;;;;27.20;18.65;;;;;;;12.13;100.00;100508.19;1720766;82;21054;-63
2022/04/14 06:53:16;;;;;;;27.75;18.23;;;;;;;12.32;100.00;100519.22;1708412;83;21089;-64
2022/04/14 06:55:47;;;;;;;27.65;17.75;;;;;;;12.33;100.00;100514.45;1708865;84;21051;-63
2022/04/14 06:58:15;;;;;;;26.80;18.32;;;;;;;12.31;100.00;100507.70;1708970;83;21038;-63
2022/04/14 07:00:42;;;;;;;28.47;18.17;;;;;;;12.43;100.00;100514.82;1708892;82;21086;-63
2022/04/14 07:03:10;;;;;;;29.55;18.67;;;;;;;12.46;100.00;100515.94;1709091;83;21135;-63
2022/04/14 07:05:38;;;;;;;27.67;18.32;;;;;;;12.51;100.00;100513.11;1708687;83;21027;-64
2022/04/14 07:08:07;;;;;;;30.68;18.90;;;;;;;12.45;100.00;100504.39;1708662;84;21034;-63
2022/04/14 07:10:34;;;;;;;28.98;18.67;;;;;;;12.71;100.00;100509.05;1709114;83;21113;-63
2022/04/14 07:13:01;;;;;;;28.60;18.60;;;;;;;12.56;100.00;100517.12;1708862;82;21090;-63
2022/04/14 07:15:29;;;;;;;28.50;18.07;;;;;;;12.66;100.00;100521.36;1708930;82;21046;-64
2022/04/14 07:17:58;;;;;;;27.65;19.10;;;;;;;12.72;100.00;100524.91;1708735;82;21046;-63
2022/04/14 07:20:29;;;;;;;27.10;18.15;;;;;;;12.76;100.00;100517.38;1708817;83;21519;-63
2022/04/14 07:22:58;;;;;;;27.32;17.65;;;;;;;12.94;100.00;100524.61;1709107;82;21051;-64
2022/04/14 07:25:25;;;;;;;27.98;17.95;;;;;;;13.05;100.00;100517.55;1708852;82;21114;-64
2022/04/14 07:27:53;;;;;;;26.07;18.20;;;;;;;12.98;100.00;100526.11;1708961;82;21109;-64
2022/04/14 07:30:20;;;;;;;24.65;17.15;;;;;;;13.09;100.00;100528.56;1717992;82;21057;-64
2022/04/14 07:32:48;;;;;;;30.60;19.02;;;;;;;13.28;100.00;100547.77;1726201;82;21515;-63
2022/04/14 07:35:15;;;;;;;26.93;18.65;;;;;;;13.20;100.00;100524.95;1728330;82;21045;-64
2022/04/14 07:37:44;;;;;;;31.95;19.02;;;;;;;13.30;100.00;100540.36;1728230;82;21534;-63
2022/04/14 07:40:13;;;;;;;27.95;17.70;;;;;;;13.68;100.00;100529.61;1728320;82;21034;-63
2022/04/14 07:42:44;;;;;;;32.73;19.70;;;;;;;13.48;100.00;100542.83;1728598;82;21042;-64
2022/04/14 07:45:14;;;;;;;31.12;19.15;;;;;;;13.57;100.00;100554.80;1728547;82;21018;-64
2022/04/14 07:47:44;;;;;;;26.48;17.70;;;;;;;13.32;100.00;100546.28;1728495;82;21494;-64
2022/04/14 07:50:16;;;;;;;26.55;18.05;;;;;;;13.17;100.00;100556.13;1728041;82;21073;-64
2022/04/14 07:52:55;;;;;;;25.27;17.40;;;;;;;13.55;100.00;100551.93;1728564;83;21053;-64
2022/04/14 07:55:30;;;;;;;25.25;18.00;;;;;;;13.66;100.00;100561.66;1728122;82;21049;-64
2022/04/14 07:58:04;;;;;;;30.62;18.87;;;;;;;13.37;100.00;100603.73;1728522;82;21125;-64
2022/04/14 08:00:32;;;;;;;31.70;20.37;;;;;;;13.75;100.00;100570.22;1728262;82;21487;-64
2022/04/14 08:03:03;;;;;;;32.55;21.50;;;;;;;13.54;100.00;100561.42;1728469;82;21041;-63
2022/04/14 08:05:39;;;;;;;31.55;21.30;;;;;;;13.36;100.00;100574.07;1728436;83;20994;-64
2022/04/14 08:08:11;;;;;;;28.85;18.98;;;;;;;13.16;100.00;100560.47;1728437;83;21041;-64
2022/04/14 08:10:41;;;;;;;27.62;18.37;;;;;;;13.39;100.00;100564.88;1728492;80;21522;-64
2022/04/14 08:13:09;;;;;;;35.95;17.70;;;;;;;13.19;100.00;100558.16;1764981;80;21036;-63
2022/04/14 08:15:36;;;;;;;27.50;18.52;;;;;;;13.43;100.00;100578.83;1765072;80;20973;-63
2022/04/14 08:18:06;;;;;;;28.30;19.92;;;;;;;13.30;100.00;100576.56;1782786;79;21518;-63
2022/04/14 08:20:39;;;;;;;31.85;20.88;;;;;;;13.30;100.00;100577.84;1776461;79;21064;-63
2022/04/14 08:23:17;;;;;;;33.73;21.20;;;;;;;13.46;100.00;100585.58;1776903;80;21067;-63
2022/04/14 08:25:39;;;;;;;29.57;20.57;;;;;;;13.24;100.00;100587.20;1774805;80;21032;-63
2022/04/14 08:28:08;;;;;;;34.23;19.80;;;;;;;13.56;100.00;100589.79;1776663;80;21576;-64
2022/04/14 08:30:36;;;;;;;30.08;18.50;;;;;;;13.56;100.00;100584.62;1774606;80;21077;-63
2022/04/14 08:33:07;;;;;;;29.32;17.90;;;;;;;13.45;100.00;100590.86;1773518;80;21084;-63
2022/04/14 08:35:36;;;;;;;26.62;17.35;;;;;;;13.76;100.00;100593.39;1773127;81;21064;-63
2022/04/14 08:38:08;;;;;;;23.40;16.25;;;;;;;13.60;100.00;100603.78;1773801;81;21029;-63
2022/04/14 08:40:39;;;;;;;23.45;16.30;;;;;;;13.95;100.00;100589.33;1774257;81;21040;-63
2022/04/14 08:43:10;;;;;;;24.85;17.00;;;;;;;13.87;100.00;100590.22;1773699;80;21046;-63
2022/04/14 08:45:50;;;;;;;24.37;16.73;;;;;;;13.65;100.00;100607.88;1773717;80;21073;-63
2022/04/14 08:48:20;;;;;;;28.60;18.27;;;;;;;13.85;100.00;100600.27;1772131;79;21015;-64
2022/04/14 08:50:50;;;;;;;28.92;19.30;;;;;;;13.94;100.00;100601.88;1774041;79;21037;-63
2022/04/14 08:53:20;;;;;;;28.17;19.00;;;;;;;13.57;100.00;100610.88;1767237;79;21501;-64
2022/04/14 08:55:48;;;;;;;36.77;16.73;;;;;;;13.80;100.00;100605.70;1776203;79;20994;-64
2022/04/14 08:58:19;;;;;;;27.02;17.00;;;;;;;13.63;100.00;100601.48;1758552;79;21092;-64
2022/04/14 09:00:49;;;;;;;22.37;16.10;;;;;;;13.55;100.00;100612.71;1774816;79;21044;-64
2022/04/14 09:03:19;;;;;;;24.27;16.48;;;;;;;13.57;100.00;100615.58;1775986;79;20997;-64
2022/04/14 09:05:46;;;;;;;25.05;16.80;;;;;;;13.72;100.00;100619.06;1788599;79;21059;-63
2022/04/14 09:08:13;;;;;;;25.48;16.80;;;;;;;13.62;100.00;100608.85;1781759;79;21040;-64
2022/04/14 09:10:42;;;;;;;26.73;16.37;;;;;;;13.74;100.00;100617.69;1772034;79;20974;-64
2022/04/14 09:13:14;;;;;;;23.12;16.10;;;;;;;14.29;100.00;100610.66;1760516;81;21512;-65
2022/04/14 09:15:42;;;;;;;26.20;17.10;;;;;;;13.97;100.00;100613.80;1760970;80;20997;-65
2022/04/14 09:18:09;;;;;;;26.00;16.73;;;;;;;14.07;100.00;100612.83;1758495;81;21036;-64
2022/04/14 09:20:41;;;;;;;22.90;15.85;;;;;;;14.20;100.00;100615.92;1758645;81;21012;-64
2022/04/14 09:23:21;;;;;;;22.80;15.90;;;;;;;14.41;100.00;100615.60;1753731;81;20993;-64
2022/04/14 09:26:01;;;;;;;19.60;14.73;;;;;;;14.74;100.00;100617.15;1763545;80;21056;-64
2022/04/14 09:28:30;;;;;;;21.25;14.38;;;;;;;14.00;100.00;100625.30;1757660;81;21068;-64
2022/04/14 09:31:07;;;;;;;21.50;14.30;;;;;;;13.99;100.00;100631.38;1758849;81;21177;-64
2022/04/14 09:33:52;;;;;;;23.55;15.10;;;;;;;14.09;100.00;100621.34;1759065;81;21021;-64
2022/04/14 09:36:20;;;;;;;22.58;14.80;;;;;;;14.57;100.00;100628.05;1762706;80;21013;-64
2022/04/14 09:39:07;;;;;;;20.62;14.18;;;;;;;14.62;100.00;100635.11;1757720;81;21521;-63
2022/04/14 09:41:42;;;;;;;20.02;13.95;;;;;;;14.45;100.00;100636.52;1767479;79;20984;-64
2022/04/14 09:44:12;;;;;;;20.17;14.30;;;;;;;14.46;100.00;100635.61;1772822;79;20982;-64
2022/04/14 09:46:46;;;;;;;19.42;15.18;;;;;;;14.69;100.00;100637.33;1779937;79;20953;-64
2022/04/14 09:49:17;;;;;;;23.70;16.12;;;;;;;14.53;100.00;100645.97;1784847;79;20960;-64
2022/04/14 09:51:48;;;;;;;19.67;14.33;;;;;;;14.39;100.00;100643.34;1786758;79;21577;-65
2022/04/14 09:54:17;;;;;;;22.22;15.05;;;;;;;14.51;100.00;100647.81;1786396;79;20988;-65
2022/04/14 09:56:59;;;;;;;21.65;14.25;;;;;;;14.50;100.00;100657.81;1794789;79;20988;-65
2022/04/14 09:59:28;;;;;;;20.08;14.23;;;;;;;14.40;100.00;100670.92;1802508;79;21091;-65
2022/04/14 10:02:18;;;;;;;22.25;15.68;;;;;;;14.28;100.00;100660.80;1783992;79;21444;-65
2022/04/14 10:04:48;;;;;;;19.12;14.73;;;;;;;14.17;100.00;100661.42;1765557;80;21061;-63
2022/04/14 10:07:20;;;;;;;19.62;14.45;;;;;;;14.21;100.00;100664.21;1743591;81;21498;-64
2022/04/14 10:09:53;;;;;;;23.98;14.50;;;;;;;14.88;100.00;100665.13;1744221;81;21026;-65
2022/04/14 10:12:26;;;;;;;19.27;13.68;;;;;;;14.32;100.00;100673.12;1739861;80;20957;-65
2022/04/14 10:15:02;;;;;;;20.25;14.55;;;;;;;14.23;100.00;100696.03;1755396;80;20993;-65
2022/04/14 10:17:39;;;;;;;22.87;14.33;;;;;;;13.88;100.00;100689.38;1767681;80;20958;-64
2022/04/14 10:20:09;;;;;;;19.48;14.10;;;;;;;13.87;100.00;100679.94;1772081;80;21461;-65
2022/04/14 10:22:38;;;;;;;20.60;13.50;;;;;;;14.42;100.00;100688.04;1795473;79;20956;-64
2022/04/14 10:25:07;;;;;;;19.77;14.05;;;;;;;14.46;100.00;100693.88;1760705;80;21053;-64
2022/04/14 10:27:36;;;;;;;20.37;14.10;;;;;;;14.58;100.00;100685.44;1763601;81;21120;-64
2022/04/14 10:30:05;;;;;;;21.00;14.18;;;;;;;14.56;100.00;100700.23;1760045;81;21026;-64
2022/04/14 10:32:35;;;;;;;19.77;14.65;;;;;;;14.60;100.00;100704.31;1733700;82;21011;-64
2022/04/14 10:35:08;;;;;;;18.25;13.95;;;;;;;14.63;100.00;100708.47;1735217;82;21046;-64
2022/04/14 10:37:41;;;;;;;19.15;14.23;;;;;;;14.14;100.00;100698.30;1726223;82;21065;-64
2022/04/14 10:40:11;;;;;;;22.25;13.22;;;;;;;14.46;100.00;100702.95;1720799;82;20995;-64
2022/04/14 10:42:42;;;;;;;22.80;15.05;;;;;;;14.08;100.00;100702.52;1723025;82;21143;-63
2022/04/14 10:45:18;;;;;;;28.10;14.20;;;;;;;14.24;100.00;100711.09;1735850;82;21105;-64
2022/04/14 10:48:00;;;;;;;22.25;14.33;;;;;;;14.11;100.00;100711.39;1735219;82;21010;-64
2022/04/14 10:50:33;;;;;;;23.57;15.48;;;;;;;14.17;100.00;100718.37;1725120;82;21026;-64
2022/04/14 10:53:20;;;;;;;23.20;16.10;;;;;;;13.85;100.00;100727.91;1725078;82;20999;-64
2022/04/14 10:55:50;;;;;;;23.92;15.30;;;;;;;14.05;100.00;100724.24;1724852;82;21011;-64
2022/04/14 10:58:38;;;;;;;23.18;15.50;;;;;;;13.91;100.00;100724.99;1724249;82;21043;-64
2022/04/14 11:01:13;;;;;;;21.00;15.05;;;;;;;14.05;100.00;100726.83;1724129;82;21022;-64
2022/04/14 11:03:47;;;;;;;22.82;16.52;;;;;;;14.14;100.00;100739.72;1724864;82;21473;-64
2022/04/14 11:06:44;;;;;;;28.47;18.60;;;;;;;14.35;100.00;100737.67;1725444;82;21440;-64
2022/04/14 11:09:48;;;;;;;24.25;17.17;;;;;;;14.28;100.00;100732.02;1735515;82;21057;-64
2022/04/14 11:12:40;;;;;;;20.25;15.35;;;;;;;14.29;100.00;100744.49;1713335;83;21038;-64
2022/04/14 11:15:09;;;;;;;21.00;15.25;;;;;;;14.03;100.00;100748.08;1735010;82;21017;-63
2022/04/14 11:17:48;;;;;;;26.00;15.78;;;;;;;13.87;100.00;100751.95;1738200;82;21026;-64